createdAt,value
2018-07-28T00:01:55.619Z,8.23
2018-07-28T00:04:23.997Z,10.43
2018-07-28T00:06:52.966Z,8.93
2018-07-28T00:09:21.072Z,9.13
2018-07-28T00:11:49.196Z,11.70
2018-07-28T00:14:17.310Z,8.90
2018-07-28T00:16:45.454Z,9.33
2018-07-28T00:19:13.599Z,9.13
2018-07-28T00:21:41.726Z,9.90
2018-07-28T00:24:09.915Z,14.87
2018-07-28T00:26:38.241Z,10.50
2018-07-28T00:29:06.333Z,16.07
2018-07-28T00:31:34.444Z,8.73
2018-07-28T00:34:02.565Z,9.80
2018-07-28T00:36:30.687Z,9.27
2018-07-28T00:38:58.827Z,9.80
2018-07-28T00:41:27.207Z,9.37
2018-07-28T00:43:55.517Z,9.98
2018-07-28T00:46:24.703Z,10.30
2018-07-28T00:48:52.795Z,9.80
2018-07-28T00:51:20.933Z,8.50
2018-07-28T00:53:49.046Z,10.43
2018-07-28T00:56:17.171Z,9.40
2018-07-28T00:58:45.381Z,9.27
2018-07-28T01:01:13.452Z,9.20
2018-07-28T01:03:41.585Z,10.73
2018-07-28T01:06:09.684Z,9.53
2018-07-28T01:08:37.778Z,9.67
2018-07-28T01:11:05.906Z,10.35
2018-07-28T01:13:33.986Z,8.50
2018-07-28T01:16:02.351Z,8.73
2018-07-28T01:18:30.477Z,13.20
2018-07-28T01:20:58.595Z,10.37
2018-07-28T01:23:26.951Z,10.50
2018-07-28T01:25:56.119Z,10.50
2018-07-28T01:28:24.271Z,11.83
2018-07-28T01:30:52.379Z,10.27
2018-07-28T01:33:20.502Z,10.90
2018-07-28T01:35:48.625Z,11.30
2018-07-28T01:38:16.731Z,10.33
2018-07-28T01:40:45.066Z,11.17
2018-07-28T01:43:13.166Z,10.50
2018-07-28T01:45:41.280Z,10.87
2018-07-28T01:48:09.369Z,9.10
2018-07-28T01:50:37.479Z,8.93
2018-07-28T01:53:05.857Z,9.45
2018-07-28T01:55:33.970Z,12.87
2018-07-28T01:58:02.085Z,10.30
2018-07-28T02:00:30.191Z,11.73
2018-07-28T02:02:58.318Z,16.93
2018-07-28T02:05:26.456Z,12.40
2018-07-28T02:07:54.562Z,12.03
2018-07-28T02:10:22.734Z,14.13
2018-07-28T02:15:53.895Z,11.20
2018-07-28T02:18:22.007Z,13.03
2018-07-28T02:20:50.121Z,10.40
2018-07-28T02:23:18.246Z,10.23
2018-07-28T02:25:46.323Z,9.70
2018-07-28T02:28:14.429Z,9.43
2018-07-28T02:30:42.541Z,8.13
2018-07-28T02:33:10.628Z,6.53
2018-07-28T02:35:38.728Z,9.25
2018-07-28T02:38:06.856Z,9.40
2018-07-28T02:40:34.995Z,9.03
2018-07-28T02:43:03.133Z,10.98
2018-07-28T02:45:31.223Z,11.90
2018-07-28T02:47:59.570Z,12.43
2018-07-28T02:50:27.663Z,11.40
2018-07-28T02:52:55.775Z,10.83
2018-07-28T02:55:23.895Z,11.30
2018-07-28T02:57:52.004Z,12.10
2018-07-28T03:00:20.172Z,10.93
2018-07-28T03:02:48.194Z,11.37
2018-07-28T03:05:16.302Z,11.00
2018-07-28T03:07:44.454Z,14.80
2018-07-28T03:10:12.565Z,10.40
2018-07-28T03:12:40.672Z,11.83
2018-07-28T03:15:21.627Z,12.63
2018-07-28T03:17:49.765Z,13.20
2018-07-28T03:20:17.939Z,12.30
2018-07-28T03:22:46.047Z,12.30
2018-07-28T03:25:14.156Z,11.97
2018-07-28T03:27:42.254Z,11.93
2018-07-28T03:30:10.479Z,13.53
2018-07-28T03:32:38.567Z,12.43
2018-07-28T03:35:06.787Z,12.10
2018-07-28T03:37:35.274Z,11.47
2018-07-28T03:40:03.471Z,11.10
2018-07-28T03:42:32.077Z,12.13
2018-07-28T03:45:00.199Z,11.33
2018-07-28T03:47:28.300Z,10.63
2018-07-28T03:49:56.409Z,9.97
2018-07-28T03:52:25.210Z,11.40
2018-07-28T03:54:53.700Z,13.27
2018-07-28T03:57:21.824Z,13.70
2018-07-28T03:59:50.255Z,11.13
2018-07-28T04:02:18.354Z,13.87
2018-07-28T04:04:46.469Z,14.47
2018-07-28T04:07:14.562Z,13.20
2018-07-28T04:09:42.885Z,13.37
2018-07-28T04:12:16.431Z,14.60
2018-07-28T04:14:44.561Z,13.00
2018-07-28T04:17:12.714Z,13.63
2018-07-28T04:19:40.818Z,13.97
2018-07-28T04:22:08.917Z,12.40
2018-07-28T04:24:37.020Z,12.73
2018-07-28T04:27:05.124Z,16.10
2018-07-28T04:29:34.317Z,12.15
2018-07-28T04:32:02.387Z,12.23
2018-07-28T04:34:30.531Z,12.17
2018-07-28T04:36:58.740Z,12.73
2018-07-28T04:39:26.814Z,13.43
2018-07-28T04:41:54.955Z,11.90
2018-07-28T04:44:23.062Z,15.17
2018-07-28T04:46:51.191Z,13.50
2018-07-28T04:49:19.418Z,17.90
2018-07-28T04:51:47.557Z,11.80
2018-07-28T04:54:15.677Z,13.20
2018-07-28T04:56:43.800Z,10.13
2018-07-28T04:59:11.917Z,15.53
2018-07-28T05:01:46.707Z,11.37
2018-07-28T05:04:14.807Z,15.50
2018-07-28T05:06:42.908Z,13.73
2018-07-28T05:09:11.466Z,11.83
2018-07-28T05:11:39.793Z,16.27
2018-07-28T05:14:07.910Z,13.00
2018-07-28T05:16:36.292Z,9.18
2018-07-28T05:19:04.416Z,9.40
2018-07-28T05:21:32.517Z,13.37
2018-07-28T05:24:00.628Z,11.87
2018-07-28T05:26:28.763Z,12.20
2018-07-28T05:28:56.868Z,12.03
2018-07-28T05:31:25.003Z,12.43
2018-07-28T05:33:53.404Z,12.27
2018-07-28T05:36:21.690Z,12.58
2018-07-28T05:38:49.767Z,12.53
2018-07-28T05:41:18.135Z,13.90
2018-07-28T05:43:46.621Z,14.10
2018-07-28T05:46:15.732Z,13.40
2018-07-28T05:48:43.868Z,12.93
2018-07-28T05:51:12.184Z,14.40
2018-07-28T05:53:40.569Z,13.47
2018-07-28T05:56:10.934Z,12.33
2018-07-28T05:58:39.516Z,10.67
2018-07-28T06:01:07.704Z,11.23
2018-07-28T06:03:35.819Z,9.20
2018-07-28T06:06:03.940Z,10.13
2018-07-28T06:08:32.056Z,9.37
2018-07-28T06:11:00.187Z,9.77
2018-07-28T06:13:28.359Z,11.47
2018-07-28T06:15:56.455Z,11.90
2018-07-28T06:18:24.632Z,10.40
2018-07-28T06:20:52.760Z,10.87
2018-07-28T06:23:20.899Z,11.00
2018-07-28T06:25:49.026Z,10.03
2018-07-28T06:28:17.115Z,10.53
2018-07-28T06:30:45.222Z,9.40
2018-07-28T06:33:13.683Z,9.33
2018-07-28T06:35:42.032Z,9.37
2018-07-28T06:38:10.155Z,8.93
2018-07-28T06:40:38.455Z,9.03
2018-07-28T06:43:06.596Z,8.70
2018-07-28T06:45:34.684Z,7.80
2018-07-28T06:48:02.783Z,8.20
2018-07-28T06:50:30.984Z,7.33
2018-07-28T06:52:59.079Z,9.23
2018-07-28T06:55:27.227Z,11.53
2018-07-28T06:57:55.352Z,9.30
2018-07-28T07:00:23.472Z,11.40
2018-07-28T07:02:51.602Z,6.73
2018-07-28T07:05:19.776Z,11.50
2018-07-28T07:07:47.908Z,10.48
2018-07-28T07:10:16.031Z,11.00
2018-07-28T07:12:44.155Z,11.00
2018-07-28T07:15:12.276Z,10.00
2018-07-28T07:17:40.431Z,10.43
2018-07-28T07:20:09.635Z,10.25
2018-07-28T07:22:37.758Z,10.90
2018-07-28T07:25:05.866Z,8.33
2018-07-28T07:27:33.969Z,8.53
2018-07-28T07:30:02.071Z,10.50
2018-07-28T07:32:30.172Z,9.53
2018-07-28T07:34:58.277Z,7.30
2018-07-28T07:37:26.361Z,7.97
2018-07-28T07:39:54.502Z,12.30
2018-07-28T07:42:22.679Z,8.68
2018-07-28T07:44:50.784Z,11.83
2018-07-28T07:47:18.921Z,7.07
2018-07-28T07:49:47.015Z,10.38
2018-07-28T07:52:15.122Z,5.72
2018-07-28T07:54:43.238Z,6.23
2018-07-28T07:57:11.471Z,24.00
2018-07-28T07:59:40.651Z,7.65
2018-07-28T08:02:08.768Z,12.13
2018-07-28T08:04:36.881Z,6.03
2018-07-28T08:07:04.965Z,7.63
2018-07-28T08:09:33.137Z,9.87
2018-07-28T08:12:01.213Z,8.10
2018-07-28T08:14:29.330Z,7.00
2018-07-28T08:16:57.679Z,9.20
2018-07-28T08:19:25.829Z,10.80
2018-07-28T08:21:53.908Z,7.20
2018-07-28T08:24:22.015Z,14.23
2018-07-28T08:26:50.195Z,7.60
2018-07-28T08:29:18.252Z,6.95
2018-07-28T08:31:46.364Z,6.83
2018-07-28T08:34:14.468Z,6.97
2018-07-28T08:36:42.580Z,7.20
2018-07-28T08:39:13.487Z,7.53
2018-07-28T08:41:42.237Z,5.90
2018-07-28T08:44:10.367Z,8.10
2018-07-28T08:46:38.518Z,6.43
2018-07-28T08:49:06.724Z,6.83
2018-07-28T08:51:34.731Z,6.67
2018-07-28T08:54:02.908Z,9.55
2018-07-28T08:56:31.109Z,7.60
2018-07-28T08:58:59.205Z,7.23
2018-07-28T09:01:27.299Z,8.30
2018-07-28T09:03:55.399Z,8.00
2018-07-28T09:06:23.711Z,6.90
2018-07-28T09:08:51.822Z,6.70
2018-07-28T09:11:19.927Z,6.27
2018-07-28T09:13:48.017Z,8.03
2018-07-28T09:16:16.995Z,13.80
2018-07-28T09:18:45.103Z,11.37
2018-07-28T09:21:13.208Z,8.63
2018-07-28T09:23:41.351Z,6.93
2018-07-28T09:26:09.458Z,7.53
2018-07-28T09:28:37.552Z,7.00
2018-07-28T09:31:05.659Z,6.90
2018-07-28T09:33:33.755Z,6.83
2018-07-28T09:36:01.866Z,5.50
2018-07-28T09:38:29.999Z,7.60
2018-07-28T09:40:58.109Z,11.00
2018-07-28T09:43:26.647Z,6.70
2018-07-28T09:45:54.988Z,6.33
2018-07-28T09:48:23.213Z,10.37
2018-07-28T09:50:51.304Z,6.17
2018-07-28T09:53:19.545Z,6.40
2018-07-28T09:55:47.663Z,5.92
2018-07-28T09:58:16.289Z,8.13
2018-07-28T10:00:49.818Z,6.40
2018-07-28T10:03:17.922Z,6.78
2018-07-28T10:05:46.266Z,6.60
2018-07-28T10:08:14.388Z,6.77
2018-07-28T10:10:42.487Z,7.23
2018-07-28T10:13:10.583Z,6.13
2018-07-28T10:15:38.731Z,8.57
2018-07-28T10:18:06.865Z,5.63
2018-07-28T10:20:35.023Z,5.60
2018-07-28T10:23:03.160Z,6.40
2018-07-28T10:25:31.257Z,5.40
2018-07-28T10:27:59.379Z,6.33
2018-07-28T10:30:27.463Z,6.90
2018-07-28T10:32:55.580Z,5.80
2018-07-28T10:35:23.679Z,6.10
2018-07-28T10:37:51.855Z,8.43
2018-07-28T10:40:20.266Z,5.67
2018-07-28T10:42:48.393Z,5.93
2018-07-28T10:45:16.759Z,6.00
2018-07-28T10:47:45.585Z,5.62
2018-07-28T10:50:13.665Z,4.97
2018-07-28T10:52:41.855Z,5.93
2018-07-28T10:55:09.985Z,4.80
2018-07-28T10:57:38.103Z,4.70
2018-07-28T11:00:07.034Z,5.53
2018-07-28T11:02:35.202Z,8.90
2018-07-28T11:05:03.479Z,5.72
2018-07-28T11:07:31.637Z,5.07
2018-07-28T11:09:59.729Z,4.67
2018-07-28T11:12:27.886Z,4.97
2018-07-28T11:14:56.077Z,5.70
2018-07-28T11:17:24.242Z,5.67
2018-07-28T11:19:52.329Z,5.42
2018-07-28T11:22:27.147Z,5.95
2018-07-28T11:24:55.249Z,6.05
2018-07-28T11:27:23.371Z,5.63
2018-07-28T11:29:51.582Z,5.93
2018-07-28T11:32:31.196Z,6.27
2018-07-28T11:35:10.575Z,4.80
2018-07-28T11:38:03.745Z,5.40
2018-07-28T11:40:45.003Z,4.30
2018-07-28T11:43:24.713Z,5.17
2018-07-28T11:45:52.845Z,5.33
2018-07-28T11:48:20.964Z,5.10
2018-07-28T11:50:49.090Z,4.30
2018-07-28T11:53:17.679Z,4.90
2018-07-28T11:55:45.798Z,6.47
2018-07-28T11:58:15.189Z,4.87
2018-07-28T12:00:43.502Z,4.80
2018-07-28T12:03:11.648Z,5.80
2018-07-28T12:05:39.830Z,5.30
2018-07-28T12:08:07.983Z,4.77
2018-07-28T12:10:36.214Z,4.92
2018-07-28T12:13:04.311Z,5.13
2018-07-28T12:15:32.419Z,11.17
2018-07-28T12:18:00.522Z,6.00
2018-07-28T12:20:28.645Z,4.73
2018-07-28T12:22:56.721Z,6.40
2018-07-28T12:25:24.911Z,7.27
2018-07-28T12:27:52.983Z,6.43
2018-07-28T12:30:21.423Z,6.70
2018-07-28T12:32:49.582Z,5.63
2018-07-28T12:35:17.637Z,5.77
2018-07-28T12:37:45.715Z,6.03
2018-07-28T12:40:13.799Z,6.30
2018-07-28T12:42:41.935Z,6.10
2018-07-28T12:45:10.024Z,6.27
2018-07-28T12:47:38.128Z,5.80
2018-07-28T12:50:06.227Z,5.90
2018-07-28T12:52:34.322Z,8.60
2018-07-28T12:55:02.437Z,6.73
2018-07-28T12:57:31.135Z,6.33
2018-07-28T12:59:59.291Z,6.50
2018-07-28T13:02:27.449Z,7.47
2018-07-28T13:04:55.637Z,7.00
2018-07-28T13:07:23.742Z,7.47
2018-07-28T13:09:51.921Z,5.60
2018-07-28T13:12:20.493Z,6.22
2018-07-28T13:14:48.524Z,7.27
2018-07-28T13:17:16.617Z,5.83
2018-07-28T13:19:45.204Z,6.17
2018-07-28T13:22:13.311Z,6.50
2018-07-28T13:24:41.414Z,5.27
2018-07-28T13:27:09.510Z,5.63
2018-07-28T13:29:37.623Z,9.53
2018-07-28T13:32:05.738Z,6.20
2018-07-28T13:34:33.880Z,4.97
2018-07-28T13:37:02.000Z,5.40
2018-07-28T13:39:30.112Z,7.67
2018-07-28T13:41:58.217Z,5.10
2018-07-28T13:44:26.320Z,6.03
2018-07-28T13:46:54.459Z,7.30
2018-07-28T13:49:22.568Z,5.27
2018-07-28T13:51:50.684Z,5.83
2018-07-28T13:54:18.764Z,6.28
2018-07-28T13:56:46.865Z,12.63
2018-07-28T13:59:14.978Z,6.00
2018-07-28T14:01:43.084Z,5.53
2018-07-28T14:04:11.168Z,6.25
2018-07-28T14:06:39.328Z,6.92
2018-07-28T14:09:08.627Z,7.10
2018-07-28T14:11:36.739Z,5.83
2018-07-28T14:14:04.882Z,8.33
2018-07-28T14:16:33.000Z,6.47
2018-07-28T14:19:01.092Z,7.00
2018-07-28T14:21:29.227Z,5.93
2018-07-28T14:23:57.319Z,6.37
2018-07-28T14:26:25.480Z,6.93
2018-07-28T14:28:53.582Z,6.17
2018-07-28T14:31:21.748Z,10.57
2018-07-28T14:33:50.134Z,5.77
2018-07-28T14:36:18.281Z,6.63
2018-07-28T14:38:46.384Z,5.70
2018-07-28T14:41:14.511Z,6.33
2018-07-28T14:43:42.602Z,6.70
2018-07-28T14:46:10.920Z,8.47
2018-07-28T14:48:39.007Z,6.95
2018-07-28T14:51:07.531Z,8.00
2018-07-28T14:53:35.849Z,7.93
2018-07-28T14:56:03.967Z,7.15
2018-07-28T14:58:32.085Z,6.27
2018-07-28T15:01:00.352Z,6.57
2018-07-28T15:03:28.717Z,6.85
2018-07-28T15:05:56.831Z,6.37
2018-07-28T15:08:25.179Z,6.47
2018-07-28T15:10:53.392Z,7.03
2018-07-28T15:13:21.728Z,6.90
2018-07-28T15:15:49.935Z,7.00
2018-07-28T15:18:18.035Z,7.70
2018-07-28T15:20:46.145Z,6.17
2018-07-28T15:23:14.266Z,7.50
2018-07-28T15:25:42.504Z,7.25
2018-07-28T15:28:10.624Z,5.83
2018-07-28T15:30:38.711Z,7.73
2018-07-28T15:33:06.846Z,8.73
2018-07-28T15:35:34.932Z,6.13
2018-07-28T15:38:03.048Z,6.37
2018-07-28T15:40:31.136Z,6.60
2018-07-28T15:42:59.244Z,6.77
2018-07-28T15:45:27.340Z,6.13
2018-07-28T15:47:56.515Z,6.85
2018-07-28T15:50:24.590Z,6.93
2018-07-28T15:52:52.675Z,8.27
2018-07-28T15:55:23.798Z,7.03
2018-07-28T15:57:51.884Z,7.73
2018-07-28T16:00:20.056Z,7.23
2018-07-28T16:02:48.848Z,6.97
2018-07-28T16:05:17.083Z,7.80
2018-07-28T16:07:45.285Z,6.78
2018-07-28T16:10:13.431Z,6.87
2018-07-28T16:12:41.539Z,6.87
2018-07-28T16:15:09.678Z,7.10
2018-07-28T16:17:37.792Z,7.30
2018-07-28T16:20:05.974Z,7.20
2018-07-28T16:22:34.067Z,6.00
2018-07-28T16:25:02.219Z,7.12
2018-07-28T16:27:30.313Z,7.30
2018-07-28T16:29:58.601Z,6.73
2018-07-28T16:32:26.746Z,8.10
2018-07-28T16:34:54.834Z,9.97
2018-07-28T16:37:23.072Z,6.90
2018-07-28T16:39:51.260Z,6.77
2018-07-28T16:42:19.422Z,6.33
2018-07-28T16:44:47.539Z,7.10
2018-07-28T16:47:15.640Z,7.93
2018-07-28T16:49:43.744Z,6.90
2018-07-28T16:52:12.008Z,7.80
2018-07-28T16:54:40.112Z,8.03
2018-07-28T16:57:08.272Z,8.00
2018-07-28T16:59:36.432Z,7.90
2018-07-28T17:02:04.695Z,6.90
2018-07-28T17:04:32.783Z,6.43
2018-07-28T17:07:00.992Z,9.43
2018-07-28T17:09:29.865Z,6.90
2018-07-28T17:11:57.971Z,7.77
2018-07-28T17:14:26.096Z,6.43
2018-07-28T17:16:54.175Z,7.47
2018-07-28T17:19:22.283Z,5.93
2018-07-28T17:21:50.515Z,6.83
2018-07-28T17:24:18.609Z,7.70
2018-07-28T17:26:46.691Z,7.33
2018-07-28T17:29:14.803Z,6.60
2018-07-28T17:31:42.909Z,7.43
2018-07-28T17:34:11.221Z,7.07
2018-07-28T17:36:39.332Z,6.97
2018-07-28T17:39:08.403Z,6.50
2018-07-28T17:41:36.498Z,7.40
2018-07-28T17:44:04.603Z,6.43
2018-07-28T17:46:32.739Z,6.80
2018-07-28T17:49:01.980Z,7.50
2018-07-28T17:51:30.074Z,6.17
2018-07-28T17:53:58.171Z,6.43
2018-07-28T17:56:26.267Z,6.70
2018-07-28T17:58:54.355Z,7.57
2018-07-28T18:01:22.453Z,7.67
2018-07-28T18:03:50.560Z,6.83
2018-07-28T18:06:18.652Z,6.43
2018-07-28T18:08:46.770Z,6.60
2018-07-28T18:11:14.841Z,5.70
2018-07-28T18:13:42.954Z,9.00
2018-07-28T18:16:12.182Z,6.17
2018-07-28T18:18:40.259Z,6.80
2018-07-28T18:21:08.577Z,6.60
2018-07-28T18:23:36.718Z,6.87
2018-07-28T18:26:04.927Z,6.70
2018-07-28T18:28:33.712Z,6.53
2018-07-28T18:31:01.821Z,17.93
2018-07-28T18:33:29.897Z,7.20
2018-07-28T18:35:57.995Z,6.60
2018-07-28T18:38:26.104Z,6.33
2018-07-28T18:40:54.212Z,9.18
2018-07-28T18:43:22.315Z,7.45
2018-07-28T18:45:50.421Z,7.83
2018-07-28T18:48:18.515Z,8.23
2018-07-28T18:50:46.627Z,7.85
2018-07-28T18:53:14.736Z,7.78
2018-07-28T18:55:42.854Z,10.40
2018-07-28T18:58:11.002Z,9.07
2018-07-28T19:00:39.132Z,7.28
2018-07-28T19:03:07.233Z,11.05
2018-07-28T19:05:35.480Z,7.67
2018-07-28T19:08:03.599Z,7.50
2018-07-28T19:10:31.714Z,7.57
2018-07-28T19:13:05.155Z,7.33
2018-07-28T19:15:33.315Z,7.27
2018-07-28T19:18:06.707Z,7.73
2018-07-28T19:20:34.769Z,7.00
2018-07-28T19:23:08.269Z,8.00
2018-07-28T19:25:36.378Z,7.87
2018-07-28T19:28:09.773Z,8.77
2018-07-28T19:30:37.883Z,7.90
2018-07-28T19:33:06.584Z,8.10
2018-07-28T19:35:39.956Z,8.63
2018-07-28T19:38:08.071Z,9.20
2018-07-28T19:40:36.571Z,9.23
2018-07-28T19:43:04.680Z,7.67
2018-07-28T19:45:32.800Z,9.83
2018-07-28T19:48:00.904Z,7.70
2018-07-28T19:50:28.980Z,8.73
2018-07-28T19:52:57.152Z,8.80
2018-07-28T19:55:25.934Z,8.00
2018-07-28T19:57:54.027Z,8.80
2018-07-28T20:00:22.139Z,8.70
2018-07-28T20:02:50.254Z,8.73
2018-07-28T20:05:18.370Z,7.30
2018-07-28T20:07:47.027Z,6.90
2018-07-28T20:10:15.129Z,7.60
2018-07-28T20:12:43.553Z,8.73
2018-07-28T20:15:11.657Z,6.43
2018-07-28T20:17:39.794Z,9.57
2018-07-28T20:20:07.903Z,7.23
2018-07-28T20:22:36.347Z,7.60
2018-07-28T20:25:04.485Z,8.80
2018-07-28T20:27:32.595Z,7.83
2018-07-28T20:30:00.705Z,8.00
2018-07-28T20:32:28.847Z,8.13
2018-07-28T20:34:56.948Z,6.77
2018-07-28T20:37:25.113Z,6.60
2018-07-28T20:39:53.245Z,7.53
2018-07-28T20:42:21.372Z,10.37
2018-07-28T20:44:49.544Z,7.50
2018-07-28T20:47:17.631Z,7.40
2018-07-28T20:49:45.743Z,9.77
2018-07-28T20:52:13.859Z,6.80
2018-07-28T20:54:41.968Z,6.67
2018-07-28T20:57:10.084Z,8.37
2018-07-28T20:59:38.568Z,9.20
2018-07-28T21:02:06.792Z,7.00
2018-07-28T21:04:34.912Z,6.60
2018-07-28T21:07:03.036Z,5.70
2018-07-28T21:09:31.138Z,6.57
2018-07-28T21:11:59.262Z,6.00
2018-07-28T21:14:27.850Z,7.03
2018-07-28T21:16:55.958Z,6.33
2018-07-28T21:19:24.149Z,7.07
2018-07-28T21:21:52.332Z,7.30
2018-07-28T21:24:20.392Z,6.67
2018-07-28T21:26:48.484Z,6.03
2018-07-28T21:29:16.588Z,6.97
2018-07-28T21:31:44.777Z,7.97
2018-07-28T21:34:12.938Z,6.70
2018-07-28T21:36:41.020Z,6.90
2018-07-28T21:39:10.635Z,7.17
2018-07-28T21:41:39.709Z,6.03
2018-07-28T21:44:07.821Z,5.83
2018-07-28T21:46:35.936Z,5.30
2018-07-28T21:49:04.040Z,7.00
2018-07-28T21:51:32.146Z,5.93
2018-07-28T21:54:00.271Z,6.37
2018-07-28T21:56:28.360Z,6.43
2018-07-28T21:58:56.741Z,6.00
2018-07-28T22:13:10.772Z,6.03
2018-07-28T22:15:38.889Z,5.90
2018-07-28T22:18:07.001Z,5.50
2018-07-28T22:20:35.121Z,5.60
2018-07-28T22:23:03.235Z,6.07
2018-07-28T22:25:31.408Z,5.93
2018-07-28T22:27:59.518Z,7.13
2018-07-28T22:30:28.090Z,5.90
2018-07-28T22:32:56.184Z,5.73
2018-07-28T22:35:24.611Z,7.57
2018-07-28T22:37:52.738Z,5.20
2018-07-28T22:40:20.857Z,8.30
2018-07-28T22:42:50.296Z,6.33
2018-07-28T22:45:19.605Z,5.15
2018-07-28T22:47:48.095Z,5.20
2018-07-28T22:50:16.771Z,5.42
2018-07-28T22:52:45.202Z,5.83
2018-07-28T22:55:13.297Z,4.83
2018-07-28T22:57:41.971Z,5.75
2018-07-28T23:00:10.439Z,6.43
2018-07-28T23:02:38.553Z,7.33
2018-07-28T23:05:07.053Z,6.83
2018-07-28T23:07:35.228Z,6.73
2018-07-28T23:10:03.619Z,6.93
2018-07-28T23:12:31.736Z,7.47
2018-07-28T23:14:59.850Z,5.67
2018-07-28T23:17:27.951Z,5.30
2018-07-28T23:19:56.080Z,6.20
2018-07-28T23:22:24.357Z,7.10
2018-07-28T23:24:52.859Z,6.92
2018-07-28T23:27:20.976Z,6.23
2018-07-28T23:29:49.113Z,6.37
2018-07-28T23:32:17.291Z,6.20
2018-07-28T23:34:45.418Z,6.00
2018-07-28T23:37:13.521Z,6.70
2018-07-28T23:39:41.662Z,6.27
2018-07-28T23:42:09.808Z,5.77
2018-07-28T23:44:37.922Z,8.20
2018-07-28T23:47:06.047Z,9.87
2018-07-28T23:49:34.163Z,7.62
2018-07-28T23:52:02.266Z,6.42
2018-07-28T23:54:30.434Z,6.95
2018-07-28T23:56:58.514Z,7.30
2018-07-28T23:59:26.682Z,6.70
